Conroe, TX

7:08 AM CDT on September 27, 2016 (GMT -0500)
Roy Harris Loop Conroe | | Change Station

Elev 220 ft 30.30 °N, 95.37 °W | Updated 7 minutes ago

Partly Cloudy
Partly Cloudy
68.5 °F
Feels Like 68.5 °F
N
2.0
Wind Variable Wind from NNW
Gusts 8.0 mph

Today
High -- | Low -- °F
--% Chance of Precip.
Yesterday
High -- | Low -- °F
Precip. -- in
Pressure 30.02 in
Visibility 10.0 miles
Clouds Few 2900 ft
Dew Point 66 °F
Humidity 93%
Rainfall 0.00 in
Snow Depth Not available.
7:13 AM 7:11 PM
Waning Crescent, 12% visible
METAR KCXO 271153Z 36005KT 10SM FEW029 20/18 A3003 RMK AO2 SLP166 70034 T02000183 10228 20200 57002
Pressure 30.02 in
Visibility 10.0 miles
Clouds Few 2900 ft
Dew Point 66 °F
Humidity 93%
Rainfall 0.00 in
Snow Depth Not available.
7:13 AM 7:11 PM
Waning Crescent, 12% visible
METAR KCXO 271153Z 36005KT 10SM FEW029 20/18 A3003 RMK AO2 SLP166 70034 T02000183 10228 20200 57002

10-Day Weather Forecast

Almanac

Astronomy

Sep. 27, 2016 Rise Set
Actual Time
Civil Twilight
Nautical Twilight
Astronomical Twilight
Moon
Length of Visible Light
Length of Day
Tomorrow will be .
, % of the Moon is Illuminated

Today's Extremes

State Highs State Lows

Community

WunderPhotos

Upload Photos

1,942,068 photos uploaded!

WunderBlog® & News

Nearby

Air Quality

  Air Quality AQ Index Pollutant
Not available.

Snow Depth

Station Depth Elevation

Earthquake Activity

City Distance Mag. Time & Date
Minimum magnitude displayed is 2.5.

Coastal Water Temperatures

Place Temperature

Stations

Nearby Weather Stations

Station Location Temp. Windchill Dew Point Humidity Wind Precip. Elev Updated Type
                   

Watches & Warnings

There are currently no watches in effect.